sensor_id;sensor_type;location;lat;lon;timestamp;P1;durP1;ratioP1;P2;durP2;ratioP2
50134;SDS011;36033;55.482;37.380;2022-07-23T00:02:10;15.02;;;10.25;;
50134;SDS011;36033;55.482;37.380;2022-07-23T00:04:40;14.43;;;10.48;;
50134;SDS011;36033;55.482;37.380;2022-07-23T00:07:07;11.75;;;9.70;;
50134;SDS011;36033;55.482;37.380;2022-07-23T00:09:33;16.33;;;10.93;;
50134;SDS011;36033;55.482;37.380;2022-07-23T00:11:59;11.80;;;10.70;;
50134;SDS011;36033;55.482;37.380;2022-07-23T00:14:24;16.45;;;10.38;;
50134;SDS011;36033;55.482;37.380;2022-07-23T00:16:53;12.95;;;11.63;;
50134;SDS011;36033;55.482;37.380;2022-07-23T00:19:19;18.60;;;10.70;;
50134;SDS011;36033;55.482;37.380;2022-07-23T00:21:45;17.42;;;10.98;;
50134;SDS011;36033;55.482;37.380;2022-07-23T00:24:11;12.77;;;11.07;;
50134;SDS011;36033;55.482;37.380;2022-07-23T00:26:42;12.63;;;9.90;;
50134;SDS011;36033;55.482;37.380;2022-07-23T00:29:08;15.50;;;11.30;;
50134;SDS011;36033;55.482;37.380;2022-07-23T00:31:35;16.13;;;11.07;;
50134;SDS011;36033;55.482;37.380;2022-07-23T00:34:01;14.65;;;11.13;;
50134;SDS011;36033;55.482;37.380;2022-07-23T00:36:31;11.75;;;10.10;;
50134;SDS011;36033;55.482;37.380;2022-07-23T00:38:57;13.88;;;10.85;;
50134;SDS011;36033;55.482;37.380;2022-07-23T00:41:23;14.88;;;10.10;;
50134;SDS011;36033;55.482;37.380;2022-07-23T00:43:48;18.85;;;12.27;;
50134;SDS011;36033;55.482;37.380;2022-07-23T00:46:18;15.27;;;10.23;;
50134;SDS011;36033;55.482;37.380;2022-07-23T00:48:47;15.02;;;11.10;;
50134;SDS011;36033;55.482;37.380;2022-07-23T00:51:14;11.10;;;9.95;;
50134;SDS011;36033;55.482;37.380;2022-07-23T00:53:41;13.20;;;11.50;;
50134;SDS011;36033;55.482;37.380;2022-07-23T00:56:07;12.95;;;10.65;;
50134;SDS011;36033;55.482;37.380;2022-07-23T00:58:34;13.93;;;11.02;;
50134;SDS011;36033;55.482;37.380;2022-07-23T01:01:00;18.63;;;12.20;;
50134;SDS011;36033;55.482;37.380;2022-07-23T01:03:26;14.43;;;10.13;;
50134;SDS011;36033;55.482;37.380;2022-07-23T01:05:52;12.50;;;11.07;;
50134;SDS011;36033;55.482;37.380;2022-07-23T01:08:18;13.27;;;11.82;;
50134;SDS011;36033;55.482;37.380;2022-07-23T01:13:11;14.77;;;11.00;;
50134;SDS011;36033;55.482;37.380;2022-07-23T01:15:38;11.63;;;10.13;;
50134;SDS011;36033;55.482;37.380;2022-07-23T01:20:31;10.20;;;9.17;;
50134;SDS011;36033;55.482;37.380;2022-07-23T01:22:58;15.88;;;10.80;;
50134;SDS011;36033;55.482;37.380;2022-07-23T01:28:17;19.50;;;11.48;;
50134;SDS011;36033;55.482;37.380;2022-07-23T01:30:53;12.13;;;10.85;;
50134;SDS011;36033;55.482;37.380;2022-07-23T01:33:44;16.23;;;10.93;;
50134;SDS011;36033;55.482;37.380;2022-07-23T01:36:10;24.00;;;11.55;;
50134;SDS011;36033;55.482;37.380;2022-07-23T01:38:36;13.70;;;9.70;;
50134;SDS011;36033;55.482;37.380;2022-07-23T01:43:37;9.98;;;8.88;;
50134;SDS011;36033;55.482;37.380;2022-07-23T01:46:10;10.90;;;9.80;;
50134;SDS011;36033;55.482;37.380;2022-07-23T01:48:56;14.10;;;9.98;;
50134;SDS011;36033;55.482;37.380;2022-07-23T01:51:33;9.93;;;8.70;;
50134;SDS011;36033;55.482;37.380;2022-07-23T01:54:07;21.63;;;9.38;;
50134;SDS011;36033;55.482;37.380;2022-07-23T01:56:33;12.10;;;8.57;;
50134;SDS011;36033;55.482;37.380;2022-07-23T01:59:00;10.80;;;9.80;;
50134;SDS011;36033;55.482;37.380;2022-07-23T02:01:27;9.73;;;8.63;;
50134;SDS011;36033;55.482;37.380;2022-07-23T02:04:00;16.30;;;10.05;;
50134;SDS011;36033;55.482;37.380;2022-07-23T02:06:33;17.35;;;8.93;;
50134;SDS011;36033;55.482;37.380;2022-07-23T02:08:58;10.90;;;9.88;;
50134;SDS011;36033;55.482;37.380;2022-07-23T02:11:24;13.68;;;9.00;;
50134;SDS011;36033;55.482;37.380;2022-07-23T02:13:49;11.30;;;8.60;;
50134;SDS011;36033;55.482;37.380;2022-07-23T02:16:15;9.85;;;8.45;;
50134;SDS011;36033;55.482;37.380;2022-07-23T02:18:42;11.57;;;8.60;;
50134;SDS011;36033;55.482;37.380;2022-07-23T02:21:10;12.02;;;8.40;;
50134;SDS011;36033;55.482;37.380;2022-07-23T02:23:36;9.10;;;8.27;;
50134;SDS011;36033;55.482;37.380;2022-07-23T02:26:01;13.98;;;9.02;;
50134;SDS011;36033;55.482;37.380;2022-07-23T02:28:28;11.45;;;8.75;;
50134;SDS011;36033;55.482;37.380;2022-07-23T02:30:53;8.35;;;7.55;;
50134;SDS011;36033;55.482;37.380;2022-07-23T02:33:19;9.27;;;8.25;;
50134;SDS011;36033;55.482;37.380;2022-07-23T02:38:10;7.53;;;6.82;;
50134;SDS011;36033;55.482;37.380;2022-07-23T02:40:37;7.18;;;6.45;;
50134;SDS011;36033;55.482;37.380;2022-07-23T02:43:02;8.48;;;7.28;;
50134;SDS011;36033;55.482;37.380;2022-07-23T02:45:28;15.98;;;7.80;;
50134;SDS011;36033;55.482;37.380;2022-07-23T02:47:54;8.27;;;7.05;;
50134;SDS011;36033;55.482;37.380;2022-07-23T02:50:20;10.38;;;6.93;;
50134;SDS011;36033;55.482;37.380;2022-07-23T02:52:45;7.53;;;6.82;;
50134;SDS011;36033;55.482;37.380;2022-07-23T02:55:11;7.63;;;6.82;;
50134;SDS011;36033;55.482;37.380;2022-07-23T02:57:37;9.52;;;6.47;;
50134;SDS011;36033;55.482;37.380;2022-07-23T03:00:03;6.55;;;5.88;;
50134;SDS011;36033;55.482;37.380;2022-07-23T03:02:30;8.32;;;6.93;;
50134;SDS011;36033;55.482;37.380;2022-07-23T03:04:56;6.90;;;6.22;;
50134;SDS011;36033;55.482;37.380;2022-07-23T03:09:48;8.05;;;7.07;;
50134;SDS011;36033;55.482;37.380;2022-07-23T03:12:13;7.30;;;6.63;;
50134;SDS011;36033;55.482;37.380;2022-07-23T03:14:39;10.80;;;6.55;;
50134;SDS011;36033;55.482;37.380;2022-07-23T03:17:06;7.65;;;5.70;;
50134;SDS011;36033;55.482;37.380;2022-07-23T03:19:32;5.80;;;5.30;;
50134;SDS011;36033;55.482;37.380;2022-07-23T03:21:58;10.05;;;6.22;;
50134;SDS011;36033;55.482;37.380;2022-07-23T03:24:23;6.60;;;5.78;;
50134;SDS011;36033;55.482;37.380;2022-07-23T03:27:09;9.82;;;5.45;;
50134;SDS011;36033;55.482;37.380;2022-07-23T03:29:35;7.03;;;6.32;;
50134;SDS011;36033;55.482;37.380;2022-07-23T03:32:02;6.63;;;5.30;;
50134;SDS011;36033;55.482;37.380;2022-07-23T03:34:29;6.20;;;5.45;;
50134;SDS011;36033;55.482;37.380;2022-07-23T03:36:55;9.50;;;6.47;;
50134;SDS011;36033;55.482;37.380;2022-07-23T03:39:20;6.28;;;5.72;;
50134;SDS011;36033;55.482;37.380;2022-07-23T03:41:46;13.27;;;5.85;;
50134;SDS011;36033;55.482;37.380;2022-07-23T03:44:12;9.80;;;6.07;;
50134;SDS011;36033;55.482;37.380;2022-07-23T03:46:38;9.95;;;5.72;;
50134;SDS011;36033;55.482;37.380;2022-07-23T03:49:04;6.82;;;5.75;;
50134;SDS011;36033;55.482;37.380;2022-07-23T03:54:08;9.73;;;5.93;;
50134;SDS011;36033;55.482;37.380;2022-07-23T03:56:49;6.07;;;5.47;;
50134;SDS011;36033;55.482;37.380;2022-07-23T03:59:16;6.75;;;5.63;;
50134;SDS011;36033;55.482;37.380;2022-07-23T04:01:41;12.75;;;4.88;;
50134;SDS011;36033;55.482;37.380;2022-07-23T04:04:07;7.50;;;6.10;;
50134;SDS011;36033;55.482;37.380;2022-07-23T04:06:35;5.53;;;5.03;;
50134;SDS011;36033;55.482;37.380;2022-07-23T04:09:01;6.53;;;5.82;;
50134;SDS011;36033;55.482;37.380;2022-07-23T04:11:28;6.00;;;5.40;;
50134;SDS011;36033;55.482;37.380;2022-07-23T04:13:54;9.18;;;5.65;;
50134;SDS011;36033;55.482;37.380;2022-07-23T04:16:21;8.30;;;5.70;;
50134;SDS011;36033;55.482;37.380;2022-07-23T04:18:47;7.82;;;4.60;;
50134;SDS011;36033;55.482;37.380;2022-07-23T04:21:16;8.05;;;6.07;;
50134;SDS011;36033;55.482;37.380;2022-07-23T04:23:43;9.88;;;5.43;;
50134;SDS011;36033;55.482;37.380;2022-07-23T04:28:35;8.75;;;5.50;;
50134;SDS011;36033;55.482;37.380;2022-07-23T04:31:01;5.05;;;4.55;;
50134;SDS011;36033;55.482;37.380;2022-07-23T04:33:28;7.85;;;5.47;;
50134;SDS011;36033;55.482;37.380;2022-07-23T04:35:56;6.50;;;5.05;;
50134;SDS011;36033;55.482;37.380;2022-07-23T04:40:50;6.88;;;4.82;;
50134;SDS011;36033;55.482;37.380;2022-07-23T04:45:45;6.30;;;5.25;;
50134;SDS011;36033;55.482;37.380;2022-07-23T04:50:36;7.07;;;5.07;;
50134;SDS011;36033;55.482;37.380;2022-07-23T04:53:04;8.23;;;5.32;;
50134;SDS011;36033;55.482;37.380;2022-07-23T04:55:30;7.18;;;6.43;;
50134;SDS011;36033;55.482;37.380;2022-07-23T04:57:57;6.80;;;4.72;;
50134;SDS011;36033;55.482;37.380;2022-07-23T05:02:48;9.57;;;5.85;;
50134;SDS011;36033;55.482;37.380;2022-07-23T05:07:41;5.90;;;5.40;;
50134;SDS011;36033;55.482;37.380;2022-07-23T05:12:32;22.98;;;7.82;;
50134;SDS011;36033;55.482;37.380;2022-07-23T05:17:24;8.02;;;4.93;;
50134;SDS011;36033;55.482;37.380;2022-07-23T05:19:50;8.52;;;4.90;;
50134;SDS011;36033;55.482;37.380;2022-07-23T05:24:42;5.05;;;3.95;;
50134;SDS011;36033;55.482;37.380;2022-07-23T05:27:08;6.40;;;5.20;;
50134;SDS011;36033;55.482;37.380;2022-07-23T05:29:34;5.85;;;5.25;;
50134;SDS011;36033;55.482;37.380;2022-07-23T05:32:00;8.45;;;4.47;;
50134;SDS011;36033;55.482;37.380;2022-07-23T05:34:28;6.82;;;4.78;;
50134;SDS011;36033;55.482;37.380;2022-07-23T05:36:56;6.88;;;4.57;;
50134;SDS011;36033;55.482;37.380;2022-07-23T05:39:21;9.15;;;4.75;;
50134;SDS011;36033;55.482;37.380;2022-07-23T05:41:47;5.60;;;4.72;;
50134;SDS011;36033;55.482;37.380;2022-07-23T05:44:13;5.15;;;4.63;;
50134;SDS011;36033;55.482;37.380;2022-07-23T05:46:40;8.27;;;4.05;;
50134;SDS011;36033;55.482;37.380;2022-07-23T05:49:11;6.75;;;5.30;;
50134;SDS011;36033;55.482;37.380;2022-07-23T05:52:14;6.10;;;4.78;;
50134;SDS011;36033;55.482;37.380;2022-07-23T05:55:08;4.50;;;4.05;;
50134;SDS011;36033;55.482;37.380;2022-07-23T05:57:35;6.10;;;5.00;;
50134;SDS011;36033;55.482;37.380;2022-07-23T06:00:04;5.57;;;4.63;;
50134;SDS011;36033;55.482;37.380;2022-07-23T06:02:39;5.70;;;4.22;;
50134;SDS011;36033;55.482;37.380;2022-07-23T06:05:31;6.20;;;4.43;;
50134;SDS011;36033;55.482;37.380;2022-07-23T06:08:05;6.03;;;4.40;;
50134;SDS011;36033;55.482;37.380;2022-07-23T06:10:50;5.82;;;4.38;;
50134;SDS011;36033;55.482;37.380;2022-07-23T06:13:19;5.93;;;4.30;;
50134;SDS011;36033;55.482;37.380;2022-07-23T06:15:45;6.15;;;4.78;;
50134;SDS011;36033;55.482;37.380;2022-07-23T06:18:10;6.13;;;4.20;;
50134;SDS011;36033;55.482;37.380;2022-07-23T06:20:38;5.32;;;4.82;;
50134;SDS011;36033;55.482;37.380;2022-07-23T06:23:03;5.35;;;4.85;;
50134;SDS011;36033;55.482;37.380;2022-07-23T06:25:29;5.32;;;4.82;;
50134;SDS011;36033;55.482;37.380;2022-07-23T06:27:55;6.40;;;4.47;;
50134;SDS011;36033;55.482;37.380;2022-07-23T06:30:21;6.45;;;4.00;;
50134;SDS011;36033;55.482;37.380;2022-07-23T06:32:47;5.43;;;4.38;;
50134;SDS011;36033;55.482;37.380;2022-07-23T06:35:15;5.20;;;3.75;;
50134;SDS011;36033;55.482;37.380;2022-07-23T06:37:41;5.90;;;4.63;;
50134;SDS011;36033;55.482;37.380;2022-07-23T06:40:07;5.32;;;4.72;;
50134;SDS011;36033;55.482;37.380;2022-07-23T06:42:36;5.28;;;4.53;;
50134;SDS011;36033;55.482;37.380;2022-07-23T06:45:04;4.97;;;3.95;;
50134;SDS011;36033;55.482;37.380;2022-07-23T06:47:30;5.78;;;4.95;;
50134;SDS011;36033;55.482;37.380;2022-07-23T06:49:56;5.10;;;4.07;;
50134;SDS011;36033;55.482;37.380;2022-07-23T06:52:26;7.00;;;4.15;;
50134;SDS011;36033;55.482;37.380;2022-07-23T06:54:55;4.45;;;4.05;;
50134;SDS011;36033;55.482;37.380;2022-07-23T06:57:20;3.97;;;3.67;;
50134;SDS011;36033;55.482;37.380;2022-07-23T06:59:48;6.20;;;4.45;;
50134;SDS011;36033;55.482;37.380;2022-07-23T07:02:14;5.88;;;3.58;;
50134;SDS011;36033;55.482;37.380;2022-07-23T07:04:39;4.53;;;3.42;;
50134;SDS011;36033;55.482;37.380;2022-07-23T07:07:05;4.57;;;3.55;;
50134;SDS011;36033;55.482;37.380;2022-07-23T07:09:31;5.43;;;3.83;;
50134;SDS011;36033;55.482;37.380;2022-07-23T07:11:57;7.65;;;3.80;;
50134;SDS011;36033;55.482;37.380;2022-07-23T07:14:23;4.20;;;3.13;;
50134;SDS011;36033;55.482;37.380;2022-07-23T07:16:48;3.83;;;3.53;;
50134;SDS011;36033;55.482;37.380;2022-07-23T07:19:14;5.70;;;3.00;;
50134;SDS011;36033;55.482;37.380;2022-07-23T07:21:40;5.28;;;3.45;;
50134;SDS011;36033;55.482;37.380;2022-07-23T07:24:05;3.60;;;3.30;;
50134;SDS011;36033;55.482;37.380;2022-07-23T07:26:31;4.90;;;3.25;;
50134;SDS011;36033;55.482;37.380;2022-07-23T07:28:57;4.13;;;3.03;;
50134;SDS011;36033;55.482;37.380;2022-07-23T07:31:23;8.30;;;3.97;;
50134;SDS011;36033;55.482;37.380;2022-07-23T07:33:49;6.95;;;3.65;;
50134;SDS011;36033;55.482;37.380;2022-07-23T07:36:14;3.13;;;2.83;;
50134;SDS011;36033;55.482;37.380;2022-07-23T07:38:40;13.60;;;3.53;;
50134;SDS011;36033;55.482;37.380;2022-07-23T07:41:05;3.60;;;3.22;;
50134;SDS011;36033;55.482;37.380;2022-07-23T07:43:32;12.95;;;3.80;;
50134;SDS011;36033;55.482;37.380;2022-07-23T07:45:59;3.55;;;3.25;;
50134;SDS011;36033;55.482;37.380;2022-07-23T07:48:25;4.72;;;2.97;;
50134;SDS011;36033;55.482;37.380;2022-07-23T07:50:51;3.63;;;3.33;;
50134;SDS011;36033;55.482;37.380;2022-07-23T07:53:17;6.10;;;3.70;;
50134;SDS011;36033;55.482;37.380;2022-07-23T07:55:43;6.88;;;4.82;;
50134;SDS011;36033;55.482;37.380;2022-07-23T07:58:09;5.32;;;4.13;;
50134;SDS011;36033;55.482;37.380;2022-07-23T08:01:03;6.43;;;4.00;;
50134;SDS011;36033;55.482;37.380;2022-07-23T08:03:36;7.50;;;5.03;;
50134;SDS011;36033;55.482;37.380;2022-07-23T08:06:30;6.20;;;3.88;;
50134;SDS011;36033;55.482;37.380;2022-07-23T08:09:02;6.18;;;3.60;;
50134;SDS011;36033;55.482;37.380;2022-07-23T08:11:32;4.70;;;4.13;;
50134;SDS011;36033;55.482;37.380;2022-07-23T08:13:57;3.95;;;3.55;;
50134;SDS011;36033;55.482;37.380;2022-07-23T08:16:23;4.50;;;3.15;;
50134;SDS011;36033;55.482;37.380;2022-07-23T08:18:48;5.05;;;4.50;;
50134;SDS011;36033;55.482;37.380;2022-07-23T08:21:14;6.45;;;3.80;;
50134;SDS011;36033;55.482;37.380;2022-07-23T08:23:40;6.70;;;3.67;;
50134;SDS011;36033;55.482;37.380;2022-07-23T08:26:05;4.50;;;3.65;;
50134;SDS011;36033;55.482;37.380;2022-07-23T08:28:31;4.80;;;4.30;;
50134;SDS011;36033;55.482;37.380;2022-07-23T08:30:58;5.03;;;4.60;;
50134;SDS011;36033;55.482;37.380;2022-07-23T08:33:24;12.02;;;4.63;;
50134;SDS011;36033;55.482;37.380;2022-07-23T08:35:50;7.63;;;4.00;;
50134;SDS011;36033;55.482;37.380;2022-07-23T08:38:19;4.18;;;3.78;;
50134;SDS011;36033;55.482;37.380;2022-07-23T08:40:47;5.63;;;5.13;;
50134;SDS011;36033;55.482;37.380;2022-07-23T08:43:18;5.00;;;4.50;;
50134;SDS011;36033;55.482;37.380;2022-07-23T08:45:49;8.07;;;4.05;;
50134;SDS011;36033;55.482;37.380;2022-07-23T08:48:20;4.97;;;3.95;;
50134;SDS011;36033;55.482;37.380;2022-07-23T08:50:48;6.00;;;4.50;;
50134;SDS011;36033;55.482;37.380;2022-07-23T08:53:15;7.03;;;4.00;;
50134;SDS011;36033;55.482;37.380;2022-07-23T08:55:48;4.32;;;3.35;;
50134;SDS011;36033;55.482;37.380;2022-07-23T08:58:15;8.63;;;4.25;;
50134;SDS011;36033;55.482;37.380;2022-07-23T09:00:41;4.68;;;4.13;;
50134;SDS011;36033;55.482;37.380;2022-07-23T09:03:11;7.30;;;5.18;;
50134;SDS011;36033;55.482;37.380;2022-07-23T09:05:41;4.68;;;4.28;;
50134;SDS011;36033;55.482;37.380;2022-07-23T09:08:08;6.78;;;4.30;;
50134;SDS011;36033;55.482;37.380;2022-07-23T09:10:47;5.18;;;4.68;;
50134;SDS011;36033;55.482;37.380;2022-07-23T09:13:23;4.22;;;3.83;;
50134;SDS011;36033;55.482;37.380;2022-07-23T09:15:51;7.50;;;5.22;;
50134;SDS011;36033;55.482;37.380;2022-07-23T09:18:27;6.50;;;4.35;;
50134;SDS011;36033;55.482;37.380;2022-07-23T09:21:07;9.55;;;4.85;;
50134;SDS011;36033;55.482;37.380;2022-07-23T09:23:39;5.35;;;4.85;;
50134;SDS011;36033;55.482;37.380;2022-07-23T09:26:17;23.98;;;8.52;;
50134;SDS011;36033;55.482;37.380;2022-07-23T09:37:08;18.70;;;7.82;;
50134;SDS011;36033;55.482;37.380;2022-07-23T09:39:37;9.60;;;5.22;;
50134;SDS011;36033;55.482;37.380;2022-07-23T09:42:16;6.32;;;5.22;;
50134;SDS011;36033;55.482;37.380;2022-07-23T09:44:48;8.35;;;5.65;;
50134;SDS011;36033;55.482;37.380;2022-07-23T09:47:15;9.25;;;4.43;;
50134;SDS011;36033;55.482;37.380;2022-07-23T09:49:57;7.57;;;4.78;;
50134;SDS011;36033;55.482;37.380;2022-07-23T09:52:27;7.40;;;4.63;;
50134;SDS011;36033;55.482;37.380;2022-07-23T09:54:57;5.20;;;4.30;;
50134;SDS011;36033;55.482;37.380;2022-07-23T09:57:25;6.70;;;4.43;;
50134;SDS011;36033;55.482;37.380;2022-07-23T09:59:51;12.32;;;4.93;;
50134;SDS011;36033;55.482;37.380;2022-07-23T10:02:17;5.20;;;4.70;;
50134;SDS011;36033;55.482;37.380;2022-07-23T10:05:15;9.68;;;5.35;;
50134;SDS011;36033;55.482;37.380;2022-07-23T10:08:13;5.40;;;4.90;;
50134;SDS011;36033;55.482;37.380;2022-07-23T10:11:01;4.85;;;4.45;;
50134;SDS011;36033;55.482;37.380;2022-07-23T10:13:46;4.40;;;4.00;;
50134;SDS011;36033;55.482;37.380;2022-07-23T10:16:27;5.25;;;4.75;;
50134;SDS011;36033;55.482;37.380;2022-07-23T10:18:53;6.10;;;5.60;;
50134;SDS011;36033;55.482;37.380;2022-07-23T10:30:14;6.40;;;4.13;;
50134;SDS011;36033;55.482;37.380;2022-07-23T10:38:19;9.18;;;4.63;;
50134;SDS011;36033;55.482;37.380;2022-07-23T10:40:57;7.13;;;4.75;;
50134;SDS011;36033;55.482;37.380;2022-07-23T10:43:24;5.82;;;3.92;;
50134;SDS011;36033;55.482;37.380;2022-07-23T10:45:50;4.95;;;4.38;;
50134;SDS011;36033;55.482;37.380;2022-07-23T10:48:20;6.65;;;6.07;;
50134;SDS011;36033;55.482;37.380;2022-07-23T10:59:15;5.57;;;5.05;;
50134;SDS011;36033;55.482;37.380;2022-07-23T11:01:40;4.65;;;4.25;;
50134;SDS011;36033;55.482;37.380;2022-07-23T11:04:06;5.00;;;4.60;;
50134;SDS011;36033;55.482;37.380;2022-07-23T11:17:34;4.93;;;4.50;;
50134;SDS011;36033;55.482;37.380;2022-07-23T11:22:37;13.13;;;5.60;;
50134;SDS011;36033;55.482;37.380;2022-07-23T11:25:40;5.60;;;5.05;;
50134;SDS011;36033;55.482;37.380;2022-07-23T11:28:15;6.70;;;4.75;;
50134;SDS011;36033;55.482;37.380;2022-07-23T11:30:43;5.40;;;4.90;;
50134;SDS011;36033;55.482;37.380;2022-07-23T11:33:15;4.82;;;4.25;;
50134;SDS011;36033;55.482;37.380;2022-07-23T11:35:43;6.18;;;5.60;;
50134;SDS011;36033;55.482;37.380;2022-07-23T11:38:14;5.10;;;4.70;;
50134;SDS011;36033;55.482;37.380;2022-07-23T11:40:42;7.28;;;5.35;;
50134;SDS011;36033;55.482;37.380;2022-07-23T11:43:10;5.50;;;4.97;;
50134;SDS011;36033;55.482;37.380;2022-07-23T11:45:37;9.30;;;4.63;;
50134;SDS011;36033;55.482;37.380;2022-07-23T11:48:05;4.82;;;4.25;;
50134;SDS011;36033;55.482;37.380;2022-07-23T11:50:33;5.30;;;4.85;;
50134;SDS011;36033;55.482;37.380;2022-07-23T11:53:00;8.95;;;5.97;;
50134;SDS011;36033;55.482;37.380;2022-07-23T11:55:30;8.07;;;5.60;;
50134;SDS011;36033;55.482;37.380;2022-07-23T11:57:56;5.93;;;5.43;;
50134;SDS011;36033;55.482;37.380;2022-07-23T12:00:24;4.53;;;4.13;;
50134;SDS011;36033;55.482;37.380;2022-07-23T12:02:52;5.47;;;5.05;;
50134;SDS011;36033;55.482;37.380;2022-07-23T12:05:23;5.28;;;4.88;;
50134;SDS011;36033;55.482;37.380;2022-07-23T12:07:54;5.57;;;5.18;;
50134;SDS011;36033;55.482;37.380;2022-07-23T12:10:21;5.05;;;4.63;;
50134;SDS011;36033;55.482;37.380;2022-07-23T12:12:51;23.52;;;21.25;;
50134;SDS011;36033;55.482;37.380;2022-07-23T12:15:19;6.38;;;5.53;;
50134;SDS011;36033;55.482;37.380;2022-07-23T12:17:58;5.75;;;4.93;;
50134;SDS011;36033;55.482;37.380;2022-07-23T12:20:28;5.28;;;4.78;;
50134;SDS011;36033;55.482;37.380;2022-07-23T12:22:57;6.10;;;5.45;;
50134;SDS011;36033;55.482;37.380;2022-07-23T12:25:31;25.30;;;23.05;;
50134;SDS011;36033;55.482;37.380;2022-07-23T12:28:00;7.93;;;7.20;;
50134;SDS011;36033;55.482;37.380;2022-07-23T12:30:38;6.75;;;6.18;;
50134;SDS011;36033;55.482;37.380;2022-07-23T12:33:04;14.15;;;12.88;;
50134;SDS011;36033;55.482;37.380;2022-07-23T12:35:33;6.13;;;5.47;;
50134;SDS011;36033;55.482;37.380;2022-07-23T12:38:04;5.40;;;4.82;;
50134;SDS011;36033;55.482;37.380;2022-07-23T12:40:32;5.07;;;4.55;;
50134;SDS011;36033;55.482;37.380;2022-07-23T12:43:02;18.75;;;17.35;;
50134;SDS011;36033;55.482;37.380;2022-07-23T12:48:20;5.30;;;4.90;;
50134;SDS011;36033;55.482;37.380;2022-07-23T12:56:00;6.63;;;6.07;;
50134;SDS011;36033;55.482;37.380;2022-07-23T12:58:40;5.95;;;5.45;;
50134;SDS011;36033;55.482;37.380;2022-07-23T13:06:42;6.07;;;5.45;;
50134;SDS011;36033;55.482;37.380;2022-07-23T13:09:13;4.75;;;4.40;;
50134;SDS011;36033;55.482;37.380;2022-07-23T13:11:40;5.95;;;5.22;;
50134;SDS011;36033;55.482;37.380;2022-07-23T13:14:06;15.13;;;13.93;;
50134;SDS011;36033;55.482;37.380;2022-07-23T13:16:32;6.03;;;5.25;;
50134;SDS011;36033;55.482;37.380;2022-07-23T13:18:58;4.93;;;4.63;;
50134;SDS011;36033;55.482;37.380;2022-07-23T13:21:29;10.20;;;9.30;;
50134;SDS011;36033;55.482;37.380;2022-07-23T13:23:55;4.80;;;4.35;;
50134;SDS011;36033;55.482;37.380;2022-07-23T13:26:21;5.38;;;4.88;;
50134;SDS011;36033;55.482;37.380;2022-07-23T13:28:48;6.00;;;5.50;;
50134;SDS011;36033;55.482;37.380;2022-07-23T13:31:16;6.05;;;5.53;;
50134;SDS011;36033;55.482;37.380;2022-07-23T13:33:42;5.68;;;5.07;;
50134;SDS011;36033;55.482;37.380;2022-07-23T13:36:08;6.57;;;5.88;;
50134;SDS011;36033;55.482;37.380;2022-07-23T13:38:34;5.63;;;5.22;;
50134;SDS011;36033;55.482;37.380;2022-07-23T13:40:59;5.93;;;5.43;;
50134;SDS011;36033;55.482;37.380;2022-07-23T13:43:25;4.95;;;4.28;;
50134;SDS011;36033;55.482;37.380;2022-07-23T13:45:51;14.10;;;4.93;;
50134;SDS011;36033;55.482;37.380;2022-07-23T13:48:18;6.15;;;5.55;;
50134;SDS011;36033;55.482;37.380;2022-07-23T13:50:44;4.85;;;4.45;;
50134;SDS011;36033;55.482;37.380;2022-07-23T13:53:18;5.30;;;4.80;;
50134;SDS011;36033;55.482;37.380;2022-07-23T13:55:52;7.07;;;4.57;;
50134;SDS011;36033;55.482;37.380;2022-07-23T13:58:20;5.32;;;4.80;;
50134;SDS011;36033;55.482;37.380;2022-07-23T14:00:47;4.72;;;4.22;;
50134;SDS011;36033;55.482;37.380;2022-07-23T14:03:15;5.43;;;4.93;;
50134;SDS011;36033;55.482;37.380;2022-07-23T14:05:41;5.68;;;4.95;;
50134;SDS011;36033;55.482;37.380;2022-07-23T14:08:07;5.78;;;5.03;;
50134;SDS011;36033;55.482;37.380;2022-07-23T14:10:33;6.63;;;4.30;;
50134;SDS011;36033;55.482;37.380;2022-07-23T14:12:58;5.72;;;5.15;;
50134;SDS011;36033;55.482;37.380;2022-07-23T14:15:25;5.03;;;4.50;;
50134;SDS011;36033;55.482;37.380;2022-07-23T14:17:52;5.32;;;4.85;;
50134;SDS011;36033;55.482;37.380;2022-07-23T14:20:20;5.60;;;4.80;;
50134;SDS011;36033;55.482;37.380;2022-07-23T14:22:48;5.80;;;5.30;;
50134;SDS011;36033;55.482;37.380;2022-07-23T14:25:14;5.97;;;5.47;;
50134;SDS011;36033;55.482;37.380;2022-07-23T14:27:40;5.32;;;4.82;;
50134;SDS011;36033;55.482;37.380;2022-07-23T14:30:07;5.40;;;4.93;;
50134;SDS011;36033;55.482;37.380;2022-07-23T14:32:34;7.20;;;4.50;;
50134;SDS011;36033;55.482;37.380;2022-07-23T14:35:00;4.10;;;3.80;;
50134;SDS011;36033;55.482;37.380;2022-07-23T14:37:26;10.50;;;5.18;;
50134;SDS011;36033;55.482;37.380;2022-07-23T14:39:51;5.85;;;4.72;;
50134;SDS011;36033;55.482;37.380;2022-07-23T14:42:17;8.88;;;5.32;;
50134;SDS011;36033;55.482;37.380;2022-07-23T14:44:43;4.60;;;4.20;;
50134;SDS011;36033;55.482;37.380;2022-07-23T14:47:09;5.55;;;5.05;;
50134;SDS011;36033;55.482;37.380;2022-07-23T14:49:35;5.53;;;5.05;;
50134;SDS011;36033;55.482;37.380;2022-07-23T14:52:02;4.90;;;4.38;;
50134;SDS011;36033;55.482;37.380;2022-07-23T14:54:29;8.60;;;4.93;;
50134;SDS011;36033;55.482;37.380;2022-07-23T14:56:55;6.45;;;4.45;;
50134;SDS011;36033;55.482;37.380;2022-07-23T14:59:22;7.60;;;4.43;;
50134;SDS011;36033;55.482;37.380;2022-07-23T15:01:48;6.85;;;5.20;;
50134;SDS011;36033;55.482;37.380;2022-07-23T15:04:14;4.13;;;3.83;;
50134;SDS011;36033;55.482;37.380;2022-07-23T15:06:40;5.28;;;4.85;;
50134;SDS011;36033;55.482;37.380;2022-07-23T15:09:06;7.47;;;6.88;;
50134;SDS011;36033;55.482;37.380;2022-07-23T15:11:34;5.65;;;5.15;;
50134;SDS011;36033;55.482;37.380;2022-07-23T15:14:01;4.97;;;4.57;;
50134;SDS011;36033;55.482;37.380;2022-07-23T15:16:27;5.00;;;4.60;;
50134;SDS011;36033;55.482;37.380;2022-07-23T15:18:53;5.93;;;4.50;;
50134;SDS011;36033;55.482;37.380;2022-07-23T15:21:19;4.15;;;3.85;;
50134;SDS011;36033;55.482;37.380;2022-07-23T15:23:45;5.35;;;4.90;;
50134;SDS011;36033;55.482;37.380;2022-07-23T15:26:10;4.85;;;4.45;;
50134;SDS011;36033;55.482;37.380;2022-07-23T15:28:36;4.85;;;4.32;;
50134;SDS011;36033;55.482;37.380;2022-07-23T15:31:02;7.85;;;4.88;;
50134;SDS011;36033;55.482;37.380;2022-07-23T15:33:28;5.28;;;4.82;;
50134;SDS011;36033;55.482;37.380;2022-07-23T15:35:55;6.03;;;5.43;;
50134;SDS011;36033;55.482;37.380;2022-07-23T15:38:22;5.47;;;4.97;;
50134;SDS011;36033;55.482;37.380;2022-07-23T15:40:48;8.57;;;5.25;;
50134;SDS011;36033;55.482;37.380;2022-07-23T15:43:14;6.68;;;4.60;;
50134;SDS011;36033;55.482;37.380;2022-07-23T15:45:39;4.40;;;4.00;;
50134;SDS011;36033;55.482;37.380;2022-07-23T15:48:05;6.28;;;5.07;;
50134;SDS011;36033;55.482;37.380;2022-07-23T15:50:31;9.23;;;5.18;;
50134;SDS011;36033;55.482;37.380;2022-07-23T15:52:57;6.15;;;4.35;;
50134;SDS011;36033;55.482;37.380;2022-07-23T15:55:22;6.95;;;4.72;;
50134;SDS011;36033;55.482;37.380;2022-07-23T15:57:52;6.35;;;4.68;;
50134;SDS011;36033;55.482;37.380;2022-07-23T16:00:17;10.05;;;4.75;;
50134;SDS011;36033;55.482;37.380;2022-07-23T16:02:47;6.85;;;4.90;;
50134;SDS011;36033;55.482;37.380;2022-07-23T16:05:15;6.85;;;5.35;;
50134;SDS011;36033;55.482;37.380;2022-07-23T16:08:00;6.25;;;5.55;;
50134;SDS011;36033;55.482;37.380;2022-07-23T16:10:28;11.57;;;10.40;;
50134;SDS011;36033;55.482;37.380;2022-07-23T16:12:54;14.18;;;11.48;;
50134;SDS011;36033;55.482;37.380;2022-07-23T16:15:20;18.50;;;14.70;;
50134;SDS011;36033;55.482;37.380;2022-07-23T16:17:47;26.48;;;23.42;;